Time;durP1;ratioP1;P1;durP2;ratioP2;P2;SDS_P1;SDS_P2;PMS_P1;PMS_P2;Temp;Humidity;BMP_temperature;BMP_pressure;BME280_temperature;BME280_humidity;BME280_pressure;Samples;Min_cycle;Max_cycle;Signal;HPM_P1;HPM_P2
2022/03/09 00:01:50;;;;;;;14.48;6.50;;;-1.30;99.90;;;;;;5097792;28;20055;-74
2022/03/09 00:04:16;;;;;;;9.75;6.60;;;-1.30;99.90;;;;;;5097496;28;20028;-74
2022/03/09 00:06:41;;;;;;;10.50;6.43;;;-1.30;99.90;;;;;;5097475;28;20028;-75
2022/03/09 00:09:09;;;;;;;13.15;7.32;;;-1.30;99.90;;;;;;5097351;28;20472;-75
2022/03/09 00:11:36;;;;;;;11.60;6.78;;;-1.30;99.90;;;;;;5097537;28;20024;-74
2022/03/09 00:14:02;;;;;;;9.70;6.32;;;-1.30;99.90;;;;;;5097176;28;20032;-74
2022/03/09 00:16:27;;;;;;;12.43;6.43;;;-1.40;99.90;;;;;;5097315;28;20031;-74
2022/03/09 00:18:53;;;;;;;11.23;7.20;;;-1.40;99.90;;;;;;5097474;28;20012;-74
2022/03/09 00:21:18;;;;;;;15.20;6.90;;;-1.40;99.90;;;;;;5097087;28;20024;-74
2022/03/09 00:23:44;;;;;;;10.98;6.53;;;-1.50;99.90;;;;;;5095752;28;20426;-74
2022/03/09 00:26:09;;;;;;;12.13;7.38;;;-1.40;99.90;;;;;;5095783;28;20444;-74
2022/03/09 00:28:35;;;;;;;12.20;6.85;;;-1.40;99.90;;;;;;5096944;28;20032;-74
2022/03/09 00:31:01;;;;;;;9.07;5.72;;;-1.40;99.90;;;;;;5096957;28;20052;-74
2022/03/09 00:33:27;;;;;;;9.30;6.25;;;-1.40;99.90;;;;;;5097377;28;20020;-74
2022/03/09 00:35:52;;;;;;;10.50;6.97;;;-1.40;99.90;;;;;;5096840;28;20510;-74
2022/03/09 00:38:18;;;;;;;11.45;6.72;;;-1.50;99.90;;;;;;5097190;28;20025;-74
2022/03/09 00:40:47;;;;;;;10.55;6.78;;;-1.50;99.90;;;;;;5095497;28;20549;-74
2022/03/09 00:43:13;;;;;;;15.00;7.25;;;-1.40;99.90;;;;;;5096811;28;20503;-74
2022/03/09 00:45:39;;;;;;;10.43;7.03;;;-1.50;99.90;;;;;;5096665;28;20056;-74
2022/03/09 00:48:04;;;;;;;18.10;7.82;;;-1.50;99.90;;;;;;5097268;28;20019;-74
2022/03/09 00:50:30;;;;;;;14.00;8.48;;;-1.40;99.90;;;;;;5096684;28;20107;-74
2022/03/09 00:52:55;;;;;;;12.68;7.25;;;-1.50;99.90;;;;;;5097139;28;20024;-75
2022/03/09 00:55:21;;;;;;;13.73;7.82;;;-1.50;99.90;;;;;;5096424;28;20039;-74
2022/03/09 00:57:46;;;;;;;14.57;7.90;;;-1.40;99.90;;;;;;5096634;28;20028;-74
2022/03/09 01:00:13;;;;;;;13.93;7.72;;;-1.40;99.90;;;;;;5096950;28;20020;-74
2022/03/09 01:02:43;;;;;;;16.42;7.78;;;-1.40;99.90;;;;;;5096141;28;20012;-75
2022/03/09 01:05:09;;;;;;;17.08;8.70;;;-1.40;99.90;;;;;;5096245;28;20016;-74
2022/03/09 01:07:35;;;;;;;14.43;7.85;;;-1.40;99.90;;;;;;5096275;28;20032;-74
2022/03/09 01:10:00;;;;;;;14.90;6.93;;;-1.40;99.90;;;;;;5096793;28;20099;-74
2022/03/09 01:12:26;;;;;;;11.30;7.38;;;-1.40;99.90;;;;;;5096243;28;20418;-74
2022/03/09 01:14:52;;;;;;;17.00;8.00;;;-1.50;99.90;;;;;;5096063;28;20036;-74
2022/03/09 01:17:17;;;;;;;12.30;7.28;;;-1.50;99.90;;;;;;5095962;28;20036;-74
2022/03/09 01:19:43;;;;;;;13.98;7.57;;;-1.50;99.90;;;;;;5096045;28;20032;-74
2022/03/09 01:22:08;;;;;;;12.88;7.80;;;-1.60;99.90;;;;;;5095977;28;20107;-74
2022/03/09 01:24:34;;;;;;;14.80;8.93;;;-1.60;99.90;;;;;;5095846;28;20035;-74
2022/03/09 01:26:59;;;;;;;15.95;8.35;;;-1.60;99.90;;;;;;5094718;28;20031;-73
2022/03/09 01:29:25;;;;;;;19.15;8.15;;;-1.60;99.90;;;;;;5095677;28;20034;-73
2022/03/09 01:31:50;;;;;;;14.43;8.02;;;-1.60;99.90;;;;;;5094562;28;20035;-74
2022/03/09 01:34:16;;;;;;;16.25;7.72;;;-1.60;99.90;;;;;;5095662;28;20028;-74
2022/03/09 01:36:41;;;;;;;17.27;8.20;;;-1.60;99.90;;;;;;5095387;28;20026;-74
2022/03/09 01:39:07;;;;;;;16.13;8.55;;;-1.70;99.90;;;;;;5095901;28;20020;-74
2022/03/09 01:41:33;;;;;;;13.90;8.25;;;-1.70;99.90;;;;;;5096187;28;20028;-74
2022/03/09 01:44:19;;;;;;;17.40;8.23;;;-1.80;99.90;;;;;;5095734;28;20044;-74
2022/03/09 01:46:47;;;;;;;17.40;8.25;;;-1.70;99.90;;;;;;5095720;28;20032;-74
2022/03/09 01:49:13;;;;;;;15.93;8.13;;;-1.70;99.90;;;;;;5094239;28;20039;-74
2022/03/09 01:51:41;;;;;;;12.32;7.80;;;-1.70;99.90;;;;;;5095503;28;20380;-74
2022/03/09 01:54:07;;;;;;;14.30;8.23;;;-1.70;99.90;;;;;;5095224;28;20036;-74
2022/03/09 01:56:33;;;;;;;14.48;7.63;;;-1.70;99.90;;;;;;5095158;28;20059;-74
2022/03/09 01:59:02;;;;;;;15.68;8.75;;;-1.80;99.90;;;;;;5095333;28;20384;-74
2022/03/09 02:01:28;;;;;;;14.13;8.30;;;-1.80;99.90;;;;;;5095252;28;20020;-74
2022/03/09 02:03:53;;;;;;;14.80;8.07;;;-1.80;99.90;;;;;;5095040;28;20384;-74
2022/03/09 02:06:19;;;;;;;12.95;7.05;;;-1.90;99.90;;;;;;5095482;28;20085;-74
2022/03/09 02:11:32;;;;;;;13.32;7.93;;;-1.90;99.90;;;;;;5095333;28;20027;-74
2022/03/09 02:13:57;;;;;;;13.80;7.40;;;-1.90;99.90;;;;;;5094013;28;20024;-74
2022/03/09 02:16:23;;;;;;;13.27;8.05;;;-2.00;99.90;;;;;;5094869;28;20074;-74
2022/03/09 02:18:49;;;;;;;15.10;7.80;;;-2.00;99.90;;;;;;5094884;28;20016;-74
2022/03/09 02:21:16;;;;;;;16.48;8.32;;;-2.00;99.90;;;;;;5094827;28;20024;-74
2022/03/09 02:23:42;;;;;;;16.27;7.95;;;-2.00;99.90;;;;;;5094957;28;20069;-73
2022/03/09 02:26:08;;;;;;;13.73;8.05;;;-2.10;99.90;;;;;;5093681;28;20395;-74
2022/03/09 02:28:45;;;;;;;13.50;7.80;;;-2.10;99.90;;;;;;5094858;28;20021;-74
2022/03/09 02:31:11;;;;;;;16.48;7.95;;;-2.10;99.90;;;;;;5094949;28;20031;-74
2022/03/09 02:33:36;;;;;;;16.60;9.60;;;-2.10;99.90;;;;;;5094841;28;20024;-74
2022/03/09 02:36:03;;;;;;;19.77;10.07;;;-2.10;99.90;;;;;;5094552;28;20132;-74
2022/03/09 02:38:28;;;;;;;12.65;7.95;;;-2.10;99.90;;;;;;5094598;28;20027;-74
2022/03/09 02:40:54;;;;;;;14.98;8.85;;;-2.10;99.90;;;;;;5094752;28;20028;-74
2022/03/09 02:43:19;;;;;;;18.42;9.90;;;-2.10;99.90;;;;;;5094943;28;20468;-74
2022/03/09 02:45:45;;;;;;;18.30;9.00;;;-2.10;99.90;;;;;;5094440;28;20103;-74
2022/03/09 02:48:11;;;;;;;13.18;8.18;;;-2.20;99.90;;;;;;5094363;28;20024;-74
2022/03/09 02:50:36;;;;;;;14.77;8.13;;;-2.20;99.90;;;;;;5094289;28;20484;-74
2022/03/09 02:53:02;;;;;;;15.70;8.43;;;-2.20;99.90;;;;;;5094843;28;20039;-74
2022/03/09 02:55:28;;;;;;;14.77;8.15;;;-2.30;99.90;;;;;;5094267;28;20027;-73
2022/03/09 02:57:53;;;;;;;22.15;9.18;;;-2.30;99.90;;;;;;5094810;28;20062;-73
2022/03/09 03:00:19;;;;;;;15.30;8.93;;;-2.30;99.90;;;;;;5094376;28;20077;-74
2022/03/09 03:02:44;;;;;;;16.38;9.60;;;-2.30;99.90;;;;;;5092973;28;20023;-74
2022/03/09 03:05:10;;;;;;;14.18;8.95;;;-2.40;99.90;;;;;;5094557;28;20077;-73
2022/03/09 03:07:36;;;;;;;17.27;8.18;;;-2.40;99.90;;;;;;5094101;28;20081;-73
2022/03/09 03:10:03;;;;;;;18.60;8.88;;;-2.50;99.90;;;;;;5094117;28;20104;-73
2022/03/09 03:12:28;;;;;;;15.57;8.68;;;-2.50;99.90;;;;;;5094571;28;20028;-74
2022/03/09 03:14:54;;;;;;;12.70;7.75;;;-2.50;99.90;;;;;;5112088;22;20049;-68
2022/03/09 03:17:19;;;;;;;17.05;9.65;;;-2.50;99.90;;;;;;5073678;28;20048;-68
2022/03/09 03:19:45;;;;;;;18.88;8.98;;;-2.60;99.90;;;;;;5073415;28;20103;-68
2022/03/09 03:22:11;;;;;;;16.02;8.20;;;-2.50;99.90;;;;;;5073948;28;20020;-68
2022/03/09 03:24:36;;;;;;;17.40;9.27;;;-2.50;99.90;;;;;;5073605;28;20025;-68
2022/03/09 03:27:02;;;;;;;15.02;9.40;;;-2.50;99.90;;;;;;5073324;28;20052;-68
2022/03/09 03:29:27;;;;;;;15.93;8.75;;;-2.50;99.90;;;;;;5073559;28;20391;-68
2022/03/09 03:31:53;;;;;;;17.42;8.77;;;-2.50;99.90;;;;;;5073296;28;20025;-68
2022/03/09 03:34:18;;;;;;;16.90;9.90;;;-2.50;99.90;;;;;;5073517;28;20502;-67
2022/03/09 03:36:44;;;;;;;18.85;10.38;;;-2.50;99.90;;;;;;5073350;28;20024;-67
2022/03/09 03:39:10;;;;;;;16.50;8.63;;;-2.60;99.90;;;;;;5073185;28;20028;-69
2022/03/09 03:41:36;;;;;;;20.05;10.48;;;-2.50;99.90;;;;;;5073217;28;20495;-70
2022/03/09 03:44:03;;;;;;;16.13;9.80;;;-2.60;99.90;;;;;;5071888;28;20396;-70
2022/03/09 03:46:28;;;;;;;14.63;8.05;;;-2.60;99.90;;;;;;5073093;28;20028;-69
2022/03/09 03:48:54;;;;;;;16.15;9.43;;;-2.60;99.90;;;;;;5073129;28;20062;-69
2022/03/09 03:51:19;;;;;;;14.95;9.25;;;-2.60;99.90;;;;;;5073056;28;20017;-69
2022/03/09 03:53:45;;;;;;;19.45;9.07;;;-2.60;99.90;;;;;;5073102;28;20112;-70
2022/03/09 03:56:10;;;;;;;16.33;9.60;;;-2.60;99.90;;;;;;5072961;28;20032;-68
2022/03/09 03:58:36;;;;;;;19.95;10.48;;;-2.70;99.90;;;;;;5073018;28;20025;-69
2022/03/09 04:01:01;;;;;;;17.83;8.68;;;-2.70;99.90;;;;;;5073003;28;20092;-70
2022/03/09 04:03:27;;;;;;;17.30;9.48;;;-2.70;99.90;;;;;;5072965;28;20472;-70
2022/03/09 04:05:53;;;;;;;18.13;9.90;;;-2.70;99.90;;;;;;5072905;28;20392;-70
2022/03/09 04:08:18;;;;;;;23.42;10.63;;;-2.70;99.90;;;;;;5072933;28;20545;-69
2022/03/09 04:10:44;;;;;;;17.92;10.00;;;-2.70;99.90;;;;;;5072914;28;20439;-69
2022/03/09 04:13:09;;;;;;;18.83;10.63;;;-2.70;99.90;;;;;;5073457;28;20028;-68
2022/03/09 04:15:35;;;;;;;17.35;10.85;;;-2.70;99.90;;;;;;5072664;28;20036;-68
2022/03/09 04:18:00;;;;;;;20.75;9.73;;;-2.70;99.90;;;;;;5072750;28;20032;-68
2022/03/09 04:20:26;;;;;;;16.38;9.57;;;-2.80;99.90;;;;;;5073098;28;20044;-68
2022/03/09 04:22:52;;;;;;;17.45;10.02;;;-2.70;99.90;;;;;;5072790;28;20074;-68
2022/03/09 04:25:17;;;;;;;17.70;9.32;;;-2.70;99.90;;;;;;5072673;28;20024;-68
2022/03/09 04:27:43;;;;;;;18.25;9.95;;;-2.70;99.90;;;;;;5073110;28;20031;-68
2022/03/09 04:30:10;;;;;;;17.10;9.60;;;-2.70;99.90;;;;;;5072737;28;20024;-68
2022/03/09 04:32:36;;;;;;;23.88;10.18;;;-2.70;99.90;;;;;;5072696;28;20399;-68
2022/03/09 04:35:05;;;;;;;19.30;10.10;;;-2.70;99.90;;;;;;5072891;28;20028;-68
2022/03/09 04:37:31;;;;;;;18.40;10.40;;;-2.70;99.90;;;;;;5074487;28;20480;-68
2022/03/09 04:40:01;;;;;;;14.85;8.98;;;-2.70;99.90;;;;;;5076231;28;20430;-68
2022/03/09 04:42:27;;;;;;;17.50;9.57;;;-2.70;99.90;;;;;;5076510;28;20571;-69
2022/03/09 04:44:54;;;;;;;18.65;10.52;;;-2.80;99.90;;;;;;5076287;28;20033;-69
2022/03/09 04:47:20;;;;;;;15.55;8.88;;;-2.80;99.90;;;;;;5076334;28;20024;-69
2022/03/09 04:49:46;;;;;;;17.52;9.65;;;-2.80;99.90;;;;;;5076062;28;20095;-68
2022/03/09 04:52:11;;;;;;;17.88;9.70;;;-2.80;99.90;;;;;;5076145;28;20040;-68
2022/03/09 04:54:37;;;;;;;20.38;10.68;;;-2.80;99.90;;;;;;5076133;28;20040;-68
2022/03/09 04:57:03;;;;;;;21.65;10.63;;;-2.70;99.90;;;;;;5075852;28;20032;-68
2022/03/09 04:59:28;;;;;;;17.30;10.48;;;-2.70;99.90;;;;;;5075806;28;20068;-68
2022/03/09 05:01:54;;;;;;;42.30;10.40;;;-2.70;99.90;;;;;;5075809;28;20150;-68
2022/03/09 05:04:19;;;;;;;18.35;10.65;;;-2.70;99.90;;;;;;5075761;28;20020;-68
2022/03/09 05:06:45;;;;;;;16.52;10.00;;;-2.70;99.90;;;;;;5075978;28;20044;-69
2022/03/09 05:09:11;;;;;;;16.67;10.07;;;-2.70;99.90;;;;;;5076000;28;20426;-68
2022/03/09 05:11:36;;;;;;;18.35;9.95;;;-2.70;99.90;;;;;;5075694;28;20027;-68
2022/03/09 05:14:02;;;;;;;17.88;9.00;;;-2.80;99.90;;;;;;5075652;28;20028;-68
2022/03/09 05:16:27;;;;;;;22.20;9.90;;;-2.80;99.90;;;;;;5075501;28;20056;-68
2022/03/09 05:18:53;;;;;;;21.10;9.80;;;-2.80;99.90;;;;;;5075834;28;20021;-68
2022/03/09 05:21:18;;;;;;;32.55;10.93;;;-2.80;99.90;;;;;;5075464;28;20070;-68
2022/03/09 05:23:44;;;;;;;16.67;9.38;;;-2.80;99.90;;;;;;5075430;28;20095;-68
2022/03/09 05:26:10;;;;;;;18.90;11.25;;;-2.80;99.90;;;;;;5075429;28;20028;-69
2022/03/09 05:28:35;;;;;;;22.70;11.48;;;-2.90;99.90;;;;;;5075377;28;20437;-68
2022/03/09 05:31:01;;;;;;;16.20;9.70;;;-2.90;99.90;;;;;;5075302;28;20551;-69
2022/03/09 05:33:26;;;;;;;21.85;10.88;;;-2.90;99.90;;;;;;5075539;28;20029;-69
2022/03/09 05:35:52;;;;;;;18.50;9.52;;;-2.80;99.90;;;;;;5075398;28;20029;-69
2022/03/09 05:38:17;;;;;;;22.02;10.40;;;-2.90;99.90;;;;;;5075352;28;20143;-68
2022/03/09 05:40:43;;;;;;;20.65;11.63;;;-2.90;99.90;;;;;;5075106;28;20020;-68
2022/03/09 05:43:08;;;;;;;22.88;11.43;;;-3.00;99.90;;;;;;5075055;28;20016;-68
2022/03/09 05:45:34;;;;;;;19.83;10.98;;;-3.00;99.90;;;;;;5075463;28;20100;-68
2022/03/09 05:48:00;;;;;;;19.23;10.68;;;-3.00;99.90;;;;;;5074896;28;20435;-68
2022/03/09 05:50:25;;;;;;;21.63;9.40;;;-3.00;99.90;;;;;;5075182;28;20051;-68
2022/03/09 05:52:51;;;;;;;20.40;10.85;;;-3.00;99.90;;;;;;5074879;28;20055;-68
2022/03/09 05:55:16;;;;;;;17.63;10.52;;;-3.00;99.90;;;;;;5074754;28;20078;-69
2022/03/09 05:57:42;;;;;;;18.25;10.73;;;-2.90;99.90;;;;;;5074670;28;20047;-69
2022/03/09 06:00:08;;;;;;;21.73;10.93;;;-2.80;99.90;;;;;;5073437;28;20460;-69
2022/03/09 06:02:34;;;;;;;22.67;10.68;;;-2.80;99.90;;;;;;5074914;28;20392;-69
2022/03/09 06:05:00;;;;;;;22.17;11.50;;;-2.80;99.90;;;;;;5074533;28;20074;-68
2022/03/09 06:07:25;;;;;;;24.00;11.55;;;-2.80;99.90;;;;;;5075105;28;20028;-67
2022/03/09 06:09:51;;;;;;;19.65;11.60;;;-2.80;99.90;;;;;;5074651;28;20032;-70
2022/03/09 06:12:17;;;;;;;22.52;10.43;;;-2.70;99.90;;;;;;5074449;28;20396;-68
2022/03/09 06:14:43;;;;;;;20.02;11.63;;;-2.80;99.90;;;;;;5074179;28;20029;-68
2022/03/09 06:17:09;;;;;;;25.17;11.75;;;-2.70;99.90;;;;;;5075166;28;20040;-69
2022/03/09 06:19:35;;;;;;;20.73;10.93;;;-2.70;99.90;;;;;;5074365;28;20496;-69
2022/03/09 06:22:00;;;;;;;18.77;11.52;;;-2.70;99.90;;;;;;5074247;28;20070;-69
2022/03/09 06:24:26;;;;;;;20.27;11.45;;;-2.60;99.90;;;;;;5074108;28;20052;-69
2022/03/09 06:26:53;;;;;;;21.48;11.65;;;-2.60;99.90;;;;;;5074189;28;20056;-70
2022/03/09 06:29:19;;;;;;;22.15;12.27;;;-2.50;99.90;;;;;;5074390;28;20028;-68
2022/03/09 06:31:45;;;;;;;17.80;11.05;;;-2.40;99.90;;;;;;5074391;28;20055;-69
2022/03/09 06:34:11;;;;;;;22.90;11.38;;;-2.40;99.90;;;;;;5074299;28;20036;-70
2022/03/09 06:36:36;;;;;;;19.25;10.77;;;-2.30;99.90;;;;;;5073847;28;20024;-68
2022/03/09 06:39:03;;;;;;;26.33;13.55;;;-2.20;99.90;;;;;;5073973;28;20024;-70
2022/03/09 06:41:29;;;;;;;22.35;11.85;;;-2.10;99.90;;;;;;5074222;28;20028;-68
2022/03/09 06:43:54;;;;;;;19.45;11.38;;;-2.00;99.90;;;;;;5073918;28;20016;-68
2022/03/09 06:46:20;;;;;;;23.92;12.73;;;-1.90;99.90;;;;;;5073824;28;20048;-68
2022/03/09 06:48:45;;;;;;;21.00;12.73;;;-1.80;99.90;;;;;;5073838;28;20048;-71
2022/03/09 06:51:11;;;;;;;25.98;12.70;;;-1.60;99.90;;;;;;5073921;28;20028;-69
2022/03/09 06:53:36;;;;;;;23.52;12.40;;;-1.50;99.90;;;;;;5073795;28;20072;-68
2022/03/09 06:56:02;;;;;;;23.30;12.57;;;-1.40;99.90;;;;;;5074409;28;20403;-67
2022/03/09 06:58:28;;;;;;;27.10;12.82;;;-1.20;99.90;;;;;;5073661;28;20032;-67
2022/03/09 07:00:55;;;;;;;24.48;13.25;;;-1.10;99.90;;;;;;5073261;28;20379;-70
2022/03/09 07:03:21;;;;;;;26.77;13.45;;;-0.90;99.90;;;;;;5073978;28;20020;-69
2022/03/09 07:05:46;;;;;;;22.17;12.13;;;-0.70;99.90;;;;;;5073569;28;20021;-68
2022/03/09 07:08:12;;;;;;;22.20;12.32;;;-0.60;99.90;;;;;;5073865;28;20365;-68
2022/03/09 07:10:38;;;;;;;25.15;12.23;;;-0.40;99.90;;;;;;5074099;28;20035;-68
2022/03/09 07:13:03;;;;;;;24.63;12.50;;;-0.20;99.90;;;;;;5073581;28;20422;-69
2022/03/09 07:15:29;;;;;;;26.88;12.80;;;0.00;99.90;;;;;;5073329;28;20108;-69
2022/03/09 07:17:55;;;;;;;19.55;12.45;;;0.10;99.90;;;;;;5073489;28;20498;-69
2022/03/09 07:20:20;;;;;;;25.05;13.35;;;0.30;99.90;;;;;;5073439;28;20024;-70
2022/03/09 07:22:46;;;;;;;18.85;11.35;;;0.50;99.90;;;;;;5073448;28;20021;-69
2022/03/09 07:25:13;;;;;;;29.02;11.85;;;0.70;99.90;;;;;;5073354;28;20025;-67
2022/03/09 07:27:40;;;;;;;24.92;13.18;;;0.80;99.90;;;;;;5073360;28;20032;-70
2022/03/09 07:30:08;;;;;;;21.50;12.30;;;1.00;99.90;;;;;;5073611;28;20029;-71
2022/03/09 07:32:34;;;;;;;23.98;12.38;;;1.20;99.90;;;;;;5073296;28;20016;-69
2022/03/09 07:34:59;;;;;;;25.60;11.38;;;1.30;99.90;;;;;;5073190;28;20071;-68
2022/03/09 07:37:25;;;;;;;21.40;12.55;;;1.50;99.90;;;;;;5073345;28;20108;-69
2022/03/09 07:39:50;;;;;;;23.48;10.23;;;1.70;99.90;;;;;;5073265;28;20021;-69
2022/03/09 07:42:16;;;;;;;17.23;11.07;;;1.80;99.90;;;;;;5073187;28;20028;-67
2022/03/09 07:44:42;;;;;;;17.08;9.52;;;2.00;99.90;;;;;;5073104;28;20027;-68
2022/03/09 07:47:07;;;;;;;18.05;9.30;;;2.20;99.90;;;;;;5073394;28;20025;-69
2022/03/09 07:49:33;;;;;;;14.93;8.68;;;2.40;99.90;;;;;;5073116;28;20390;-69
2022/03/09 07:52:00;;;;;;;16.67;8.88;;;2.60;99.90;;;;;;5073444;28;20091;-69
2022/03/09 07:54:27;;;;;;;17.63;9.23;;;2.80;99.90;;;;;;5073286;28;20055;-70
2022/03/09 07:56:52;;;;;;;13.07;7.90;;;3.00;99.90;;;;;;5073026;28;20044;-70
2022/03/09 07:59:18;;;;;;;16.38;7.43;;;3.20;99.90;;;;;;5073098;28;20083;-69
2022/03/09 08:01:44;;;;;;;16.08;7.40;;;3.40;99.90;;;;;;5073235;28;20024;-67
2022/03/09 08:04:10;;;;;;;14.20;7.03;;;3.60;99.90;;;;;;5072993;28;20031;-67
2022/03/09 08:06:37;;;;;;;15.73;7.53;;;3.80;99.90;;;;;;5073023;28;20392;-68
2022/03/09 08:09:03;;;;;;;15.20;7.70;;;4.00;99.90;;;;;;5072932;28;20039;-68
2022/03/09 08:11:30;;;;;;;19.73;8.43;;;4.20;99.90;;;;;;5073282;28;20120;-68
2022/03/09 08:13:57;;;;;;;16.13;7.32;;;4.40;99.90;;;;;;5077335;28;20023;-67
2022/03/09 08:16:22;;;;;;;16.05;7.85;;;4.60;99.90;;;;;;5076417;28;20060;-69
2022/03/09 08:18:48;;;;;;;22.95;7.78;;;4.80;99.90;;;;;;5076664;28;20055;-70
2022/03/09 08:21:13;;;;;;;10.68;6.75;;;4.90;99.90;;;;;;5076879;28;20037;-70
2022/03/09 08:23:39;;;;;;;11.07;6.25;;;5.10;99.90;;;;;;5076823;28;20079;-69
2022/03/09 08:26:05;;;;;;;12.15;6.30;;;5.20;99.90;;;;;;5076396;28;20021;-69
2022/03/09 08:28:30;;;;;;;20.45;6.70;;;5.30;99.90;;;;;;5076760;28;20489;-67
2022/03/09 08:30:56;;;;;;;11.18;6.03;;;5.50;99.90;;;;;;5076402;28;20025;-67
2022/03/09 08:33:21;;;;;;;13.48;6.15;;;5.60;99.90;;;;;;5076370;28;20391;-67
2022/03/09 08:35:47;;;;;;;12.02;5.32;;;5.80;99.90;;;;;;5076321;28;20593;-70
2022/03/09 08:38:13;;;;;;;15.02;5.97;;;5.90;99.90;;;;;;5076554;28;20431;-70
2022/03/09 08:40:38;;;;;;;12.55;6.60;;;6.10;99.90;;;;;;5075054;28;20472;-68
2022/03/09 08:43:04;;;;;;;9.88;5.43;;;6.20;99.90;;;;;;5076269;28;20374;-69
2022/03/09 08:45:30;;;;;;;11.98;6.80;;;6.40;99.90;;;;;;5076105;28;20091;-68
2022/03/09 08:47:55;;;;;;;10.88;5.55;;;6.50;99.90;;;;;;5076093;28;20457;-69
2022/03/09 08:50:21;;;;;;;12.77;6.22;;;6.70;99.90;;;;;;5076256;28;20028;-69
2022/03/09 08:52:46;;;;;;;12.68;6.07;;;6.80;99.90;;;;;;5076404;28;20025;-68
2022/03/09 08:55:12;;;;;;;12.85;6.03;;;6.90;99.90;;;;;;5076547;28;20036;-68
2022/03/09 08:57:38;;;;;;;14.32;6.43;;;7.00;99.90;;;;;;5075970;28;20036;-68
2022/03/09 09:00:05;;;;;;;10.10;4.88;;;7.10;99.90;;;;;;5076527;28;20020;-68
2022/03/09 09:02:31;;;;;;;11.27;5.15;;;7.20;99.90;;;;;;5075853;28;20021;-68
2022/03/09 09:04:57;;;;;;;17.40;6.40;;;7.30;99.90;;;;;;5076022;28;20345;-68
2022/03/09 09:07:23;;;;;;;18.60;6.75;;;7.50;99.90;;;;;;5076112;28;20437;-69
2022/03/09 09:09:49;;;;;;;10.30;5.28;;;7.60;99.90;;;;;;5075793;28;20100;-67
2022/03/09 09:12:15;;;;;;;14.00;6.03;;;7.80;99.90;;;;;;5075666;28;20029;-67
2022/03/09 09:14:40;;;;;;;14.05;6.38;;;8.00;99.90;;;;;;5075498;28;20033;-68
2022/03/09 09:17:07;;;;;;;12.02;6.43;;;8.20;99.90;;;;;;5088831;23;20411;-71
2022/03/09 09:19:33;;;;;;;9.88;5.55;;;8.30;99.90;;;;;;5075699;28;20029;-71
2022/03/09 09:21:59;;;;;;;11.82;5.80;;;8.40;99.90;;;;;;5075875;28;20024;-71
2022/03/09 09:24:25;;;;;;;10.05;6.07;;;8.50;99.90;;;;;;5075542;28;20028;-71
2022/03/09 09:26:50;;;;;;;15.43;5.95;;;8.60;99.90;;;;;;5075435;28;20025;-72
2022/03/09 09:29:16;;;;;;;9.32;5.57;;;8.70;99.90;;;;;;5075731;28;20052;-71
2022/03/09 09:31:42;;;;;;;23.35;5.25;;;8.80;99.90;;;;;;5075485;28;20041;-71
2022/03/09 09:34:08;;;;;;;11.80;5.95;;;8.90;99.90;;;;;;5075411;28;20020;-71
2022/03/09 09:36:34;;;;;;;10.85;6.32;;;9.00;99.90;;;;;;5075411;28;20021;-71
2022/03/09 09:39:00;;;;;;;12.52;5.85;;;9.20;99.90;;;;;;5075302;28;20104;-71
2022/03/09 09:41:27;;;;;;;16.08;6.22;;;9.40;99.90;;;;;;5073980;28;20074;-71
2022/03/09 09:43:52;;;;;;;13.60;6.00;;;9.60;99.90;;;;;;5075116;28;20108;-71
2022/03/09 09:46:18;;;;;;;15.93;6.05;;;9.70;99.90;;;;;;5075062;28;20052;-71
2022/03/09 09:48:44;;;;;;;9.10;6.00;;;9.80;99.90;;;;;;5075049;28;20430;-71
2022/03/09 09:51:12;;;;;;;14.68;6.32;;;9.90;99.90;;;;;;5075118;28;20079;-71
2022/03/09 09:53:42;;;;;;;11.23;6.25;;;10.10;99.90;;;;;;5074968;28;20021;-72
2022/03/09 09:56:08;;;;;;;15.63;6.18;;;10.20;99.90;;;;;;5073607;28;20485;-71
2022/03/09 09:58:36;;;;;;;10.80;5.88;;;10.30;99.90;;;;;;5075051;28;20103;-71
2022/03/09 10:01:01;;;;;;;13.10;5.68;;;10.20;99.90;;;;;;5075044;28;20016;-71
2022/03/09 10:03:27;;;;;;;9.00;5.53;;;10.30;99.90;;;;;;5074789;28;20036;-71
2022/03/09 10:05:52;;;;;;;10.55;5.80;;;10.40;99.90;;;;;;5074793;28;20047;-71
2022/03/09 10:08:18;;;;;;;11.75;5.57;;;10.50;99.90;;;;;;5074607;28;20024;-71
2022/03/09 10:10:59;;;;;;;22.25;6.95;;;10.60;99.90;;;;;;5074846;28;20031;-71
2022/03/09 10:13:30;;;;;;;11.40;5.90;;;10.70;99.90;;;;;;5073305;28;20116;-71
2022/03/09 10:16:13;;;;;;;10.20;5.22;;;10.80;99.90;;;;;;5074428;28;20119;-71
2022/03/09 10:18:45;;;;;;;10.85;5.63;;;11.00;99.90;;;;;;5074780;28;20020;-71
2022/03/09 10:21:13;;;;;;;11.27;6.90;;;11.00;99.90;;;;;;5074401;28;20032;-72
2022/03/09 10:23:57;;;;;;;9.80;5.53;;;11.00;99.90;;;;;;5074867;28;20099;-71
2022/03/09 10:26:47;;;;;;;14.80;5.68;;;10.90;99.90;;;;;;5074262;28;20024;-71
2022/03/09 10:29:18;;;;;;;10.30;5.78;;;11.00;99.90;;;;;;5067454;28;20075;-72
2022/03/09 10:31:46;;;;;;;10.95;6.07;;;11.20;99.90;;;;;;5074301;28;20020;-72
2022/03/09 10:34:24;;;;;;;10.90;6.00;;;11.50;99.90;;;;;;5073593;28;20365;-72
2022/03/09 10:37:02;;;;;;;14.43;5.93;;;11.50;99.90;;;;;;5074130;28;20477;-71
2022/03/09 10:39:30;;;;;;;12.00;7.10;;;11.60;99.90;;;;;;5074201;28;20472;-72
2022/03/09 10:42:01;;;;;;;11.05;6.05;;;11.60;99.90;;;;;;5074051;28;20027;-72
2022/03/09 10:44:49;;;;;;;9.02;5.80;;;11.70;99.90;;;;;;5072701;28;20021;-72
2022/03/09 10:47:32;;;;;;;9.07;6.25;;;11.90;99.90;;;;;;5073889;28;20033;-72
2022/03/09 10:50:17;;;;;;;8.10;5.47;;;12.10;99.90;;;;;;5074035;28;20515;-72
2022/03/09 10:52:57;;;;;;;11.02;6.55;;;12.30;99.90;;;;;;5074190;28;20032;-72
2022/03/09 10:55:36;;;;;;;22.08;5.97;;;12.50;99.90;;;;;;5074055;28;20063;-72
2022/03/09 10:58:18;;;;;;;15.55;6.82;;;12.70;99.90;;;;;;5073794;28;20040;-72
2022/03/09 11:00:44;;;;;;;16.02;6.65;;;12.60;99.90;;;;;;5074071;28;20066;-72
2022/03/09 11:03:16;;;;;;;11.65;6.07;;;12.50;99.90;;;;;;5073772;28;20017;-72
2022/03/09 11:05:58;;;;;;;20.95;6.68;;;12.40;99.90;;;;;;5074195;28;20025;-72
2022/03/09 11:08:26;;;;;;;12.65;6.43;;;12.40;99.90;;;;;;5072358;28;20041;-72
2022/03/09 11:10:52;;;;;;;17.10;7.05;;;12.30;99.90;;;;;;5073684;28;20031;-72
2022/03/09 11:13:18;;;;;;;24.98;6.78;;;12.30;99.90;;;;;;5073929;28;20027;-72
2022/03/09 11:15:47;;;;;;;20.48;6.75;;;12.50;99.90;;;;;;5073505;28;20111;-73
2022/03/09 11:18:19;;;;;;;22.15;6.88;;;12.50;99.90;;;;;;5074023;28;20468;-71
2022/03/09 11:20:46;;;;;;;20.00;6.78;;;12.50;99.90;;;;;;5073927;28;20028;-72
2022/03/09 11:23:14;;;;;;;12.95;6.63;;;12.60;99.90;;;;;;5073556;28;20021;-72
2022/03/09 11:25:50;;;;;;;13.52;6.95;;;12.80;99.90;;;;;;5073600;28;20021;-72
2022/03/09 11:28:29;;;;;;;13.13;7.45;;;13.00;99.90;;;;;;5074089;28;20017;-72
2022/03/09 11:31:00;;;;;;;17.60;6.57;;;13.10;99.90;;;;;;5074008;28;20116;-72
2022/03/09 11:33:40;;;;;;;8.55;6.32;;;13.20;99.90;;;;;;5073465;28;20099;-72
2022/03/09 11:36:29;;;;;;;11.82;7.18;;;13.50;99.90;;;;;;5073340;28;20067;-72
2022/03/09 11:39:05;;;;;;;24.42;7.05;;;13.70;99.90;;;;;;5070264;28;20036;-72
2022/03/09 11:41:36;;;;;;;12.35;7.38;;;13.60;99.90;;;;;;5073765;28;20027;-72
2022/03/09 11:44:19;;;;;;;13.25;7.32;;;13.80;99.90;;;;;;5073479;28;20103;-72
2022/03/09 11:47:01;;;;;;;11.50;7.30;;;14.10;99.90;;;;;;5075846;28;20071;-72
2022/03/09 11:49:31;;;;;;;13.85;7.90;;;14.20;97.50;;;;;;5077468;28;20032;-71
2022/03/09 11:52:12;;;;;;;11.85;7.43;;;14.40;99.80;;;;;;5077397;28;20031;-72
2022/03/09 11:54:46;;;;;;;13.98;7.32;;;15.00;98.80;;;;;;5077364;28;20103;-72
2022/03/09 11:57:14;;;;;;;13.95;7.43;;;15.40;98.80;;;;;;5077482;28;20453;-72
2022/03/09 12:00:03;;;;;;;12.20;7.47;;;15.40;96.30;;;;;;5075970;28;20116;-72
2022/03/09 12:02:42;;;;;;;13.55;7.43;;;15.70;95.00;;;;;;5077158;28;20024;-72
2022/03/09 12:05:28;;;;;;;14.95;7.95;;;15.60;93.30;;;;;;5077095;28;20484;-72
2022/03/09 12:08:00;;;;;;;15.65;7.70;;;15.80;94.20;;;;;;5073455;28;20040;-72
2022/03/09 12:10:44;;;;;;;21.48;6.93;;;16.10;93.20;;;;;;5077343;28;20029;-72
2022/03/09 12:13:14;;;;;;;10.23;7.28;;;16.20;91.70;;;;;;5076892;28;20035;-72
2022/03/09 12:15:59;;;;;;;15.23;7.63;;;15.90;91.40;;;;;;5076779;28;20388;-72
2022/03/09 12:18:43;;;;;;;15.70;7.47;;;16.40;91.00;;;;;;5076714;28;20104;-72
2022/03/09 12:21:14;;;;;;;12.73;7.20;;;16.50;90.50;;;;;;5077191;28;20016;-74
2022/03/09 12:24:00;;;;;;;17.08;8.23;;;16.60;86.90;;;;;;5077156;28;20025;-74
2022/03/09 12:26:43;;;;;;;17.13;7.95;;;16.10;84.40;;;;;;5072822;28;20132;-74
2022/03/09 12:29:20;;;;;;;24.45;7.05;;;16.20;87.80;;;;;;5077119;28;20092;-74
2022/03/09 12:31:46;;;;;;;16.42;8.48;;;16.60;88.70;;;;;;5075500;28;20031;-74
2022/03/09 12:34:24;;;;;;;11.07;7.03;;;17.10;88.10;;;;;;5076756;28;20027;-74
2022/03/09 12:36:49;;;;;;;15.82;8.13;;;17.30;86.70;;;;;;5076576;28;20024;-74
2022/03/09 12:39:16;;;;;;;15.18;8.15;;;16.90;81.90;;;;;;5076651;28;20023;-74
2022/03/09 12:41:44;;;;;;;14.93;7.25;;;16.80;78.80;;;;;;5076833;28;20465;-74
2022/03/09 12:44:15;;;;;;;12.60;7.30;;;16.60;78.70;;;;;;5076602;28;20471;-74